sensor_id;sensor_type;location;lat;lon;timestamp;P1;durP1;ratioP1;P2;durP2;ratioP2
13327;SDS011;6733;51.044;3.746;2022-11-15T00:00:51;19.90;;;16.33;;
13327;SDS011;6733;51.044;3.746;2022-11-15T00:03:19;20.13;;;17.00;;
13327;SDS011;6733;51.044;3.746;2022-11-15T00:05:49;18.60;;;15.87;;
13327;SDS011;6733;51.044;3.746;2022-11-15T00:08:15;21.07;;;16.33;;
13327;SDS011;6733;51.044;3.746;2022-11-15T00:10:42;19.40;;;15.93;;
13327;SDS011;6733;51.044;3.746;2022-11-15T00:13:12;21.97;;;15.63;;
13327;SDS011;6733;51.044;3.746;2022-11-15T00:15:39;19.87;;;16.03;;
13327;SDS011;6733;51.044;3.746;2022-11-15T00:18:13;17.43;;;14.77;;
13327;SDS011;6733;51.044;3.746;2022-11-15T00:20:40;18.43;;;15.27;;
13327;SDS011;6733;51.044;3.746;2022-11-15T00:23:06;17.27;;;14.63;;
13327;SDS011;6733;51.044;3.746;2022-11-15T00:25:33;25.23;;;15.43;;
13327;SDS011;6733;51.044;3.746;2022-11-15T00:27:59;18.13;;;15.63;;
13327;SDS011;6733;51.044;3.746;2022-11-15T00:30:26;17.30;;;14.40;;
13327;SDS011;6733;51.044;3.746;2022-11-15T00:32:53;20.13;;;15.00;;
13327;SDS011;6733;51.044;3.746;2022-11-15T00:35:19;17.80;;;15.10;;
13327;SDS011;6733;51.044;3.746;2022-11-15T00:37:46;20.00;;;14.07;;
13327;SDS011;6733;51.044;3.746;2022-11-15T00:40:13;15.47;;;13.80;;
13327;SDS011;6733;51.044;3.746;2022-11-15T00:42:40;21.87;;;15.70;;
13327;SDS011;6733;51.044;3.746;2022-11-15T00:45:07;18.93;;;14.67;;
13327;SDS011;6733;51.044;3.746;2022-11-15T00:47:34;17.03;;;14.43;;
13327;SDS011;6733;51.044;3.746;2022-11-15T00:50:00;17.70;;;14.60;;
13327;SDS011;6733;51.044;3.746;2022-11-15T00:52:26;18.33;;;14.23;;
13327;SDS011;6733;51.044;3.746;2022-11-15T00:54:52;16.43;;;14.67;;
13327;SDS011;6733;51.044;3.746;2022-11-15T00:57:18;20.83;;;14.80;;
13327;SDS011;6733;51.044;3.746;2022-11-15T00:59:44;19.70;;;13.90;;
13327;SDS011;6733;51.044;3.746;2022-11-15T01:02:10;15.43;;;13.40;;
13327;SDS011;6733;51.044;3.746;2022-11-15T01:04:37;16.97;;;14.47;;
13327;SDS011;6733;51.044;3.746;2022-11-15T01:07:03;17.03;;;14.40;;
13327;SDS011;6733;51.044;3.746;2022-11-15T01:09:29;15.50;;;14.00;;
13327;SDS011;6733;51.044;3.746;2022-11-15T01:11:55;18.07;;;14.10;;
13327;SDS011;6733;51.044;3.746;2022-11-15T01:14:21;15.90;;;14.20;;
13327;SDS011;6733;51.044;3.746;2022-11-15T01:16:47;17.20;;;14.23;;
13327;SDS011;6733;51.044;3.746;2022-11-15T01:19:13;18.43;;;14.50;;
13327;SDS011;6733;51.044;3.746;2022-11-15T01:21:40;15.90;;;13.30;;
13327;SDS011;6733;51.044;3.746;2022-11-15T01:24:06;17.60;;;14.43;;
13327;SDS011;6733;51.044;3.746;2022-11-15T01:26:33;15.90;;;14.03;;
13327;SDS011;6733;51.044;3.746;2022-11-15T01:28:59;18.63;;;14.73;;
13327;SDS011;6733;51.044;3.746;2022-11-15T01:31:25;16.83;;;13.20;;
13327;SDS011;6733;51.044;3.746;2022-11-15T01:33:52;16.23;;;13.87;;
13327;SDS011;6733;51.044;3.746;2022-11-15T01:36:19;18.47;;;13.60;;
13327;SDS011;6733;51.044;3.746;2022-11-15T01:38:56;16.13;;;13.27;;
13327;SDS011;6733;51.044;3.746;2022-11-15T01:41:24;15.07;;;13.33;;
13327;SDS011;6733;51.044;3.746;2022-11-15T01:47:03;17.47;;;12.20;;
13327;SDS011;6733;51.044;3.746;2022-11-15T01:49:37;13.77;;;12.33;;
13327;SDS011;6733;51.044;3.746;2022-11-15T01:52:11;17.40;;;12.27;;
13327;SDS011;6733;51.044;3.746;2022-11-15T01:54:41;16.63;;;12.03;;
13327;SDS011;6733;51.044;3.746;2022-11-15T01:57:09;18.37;;;11.03;;
13327;SDS011;6733;51.044;3.746;2022-11-15T01:59:37;14.27;;;11.07;;
13327;SDS011;6733;51.044;3.746;2022-11-15T02:02:05;16.27;;;10.80;;
13327;SDS011;6733;51.044;3.746;2022-11-15T02:04:32;19.27;;;11.07;;
13327;SDS011;6733;51.044;3.746;2022-11-15T02:07:03;13.77;;;10.47;;
13327;SDS011;6733;51.044;3.746;2022-11-15T02:09:32;16.73;;;10.63;;
13327;SDS011;6733;51.044;3.746;2022-11-15T02:11:58;14.70;;;10.17;;
13327;SDS011;6733;51.044;3.746;2022-11-15T02:14:25;12.33;;;8.80;;
13327;SDS011;6733;51.044;3.746;2022-11-15T02:24:52;13.43;;;9.03;;
13327;SDS011;6733;51.044;3.746;2022-11-15T02:30:22;15.60;;;9.00;;
13327;SDS011;6733;51.044;3.746;2022-11-15T02:43:26;9.87;;;8.30;;
13327;SDS011;6733;51.044;3.746;2022-11-15T02:46:18;11.77;;;7.83;;
13327;SDS011;6733;51.044;3.746;2022-11-15T02:48:47;12.67;;;8.07;;
13327;SDS011;6733;51.044;3.746;2022-11-15T02:51:14;9.93;;;7.13;;
13327;SDS011;6733;51.044;3.746;2022-11-15T02:53:41;10.53;;;7.37;;
13327;SDS011;6733;51.044;3.746;2022-11-15T02:56:07;12.10;;;7.03;;
13327;SDS011;6733;51.044;3.746;2022-11-15T02:58:58;10.67;;;7.10;;
13327;SDS011;6733;51.044;3.746;2022-11-15T03:01:50;13.47;;;7.37;;
13327;SDS011;6733;51.044;3.746;2022-11-15T03:07:10;10.47;;;7.07;;
13327;SDS011;6733;51.044;3.746;2022-11-15T03:09:50;10.73;;;6.87;;
13327;SDS011;6733;51.044;3.746;2022-11-15T03:12:25;14.83;;;7.37;;
13327;SDS011;6733;51.044;3.746;2022-11-15T03:15:05;13.20;;;6.63;;
13327;SDS011;6733;51.044;3.746;2022-11-15T03:18:10;12.87;;;6.47;;
13327;SDS011;6733;51.044;3.746;2022-11-15T03:20:32;10.83;;;6.13;;
13327;SDS011;6733;51.044;3.746;2022-11-15T03:23:01;8.87;;;5.87;;
13327;SDS011;6733;51.044;3.746;2022-11-15T03:25:30;9.93;;;5.77;;
13327;SDS011;6733;51.044;3.746;2022-11-15T03:28:00;11.40;;;6.50;;
13327;SDS011;6733;51.044;3.746;2022-11-15T03:30:31;8.23;;;5.93;;
13327;SDS011;6733;51.044;3.746;2022-11-15T03:33:00;10.43;;;6.40;;
13327;SDS011;6733;51.044;3.746;2022-11-15T03:35:33;12.13;;;6.30;;
13327;SDS011;6733;51.044;3.746;2022-11-15T03:38:23;8.03;;;5.80;;
13327;SDS011;6733;51.044;3.746;2022-11-15T03:40:57;9.83;;;5.60;;
13327;SDS011;6733;51.044;3.746;2022-11-15T03:46:07;9.00;;;5.50;;
13327;SDS011;6733;51.044;3.746;2022-11-15T03:49:04;9.17;;;5.77;;
13327;SDS011;6733;51.044;3.746;2022-11-15T03:51:43;7.53;;;5.57;;
13327;SDS011;6733;51.044;3.746;2022-11-15T03:54:10;11.27;;;5.97;;
13327;SDS011;6733;51.044;3.746;2022-11-15T03:56:38;6.83;;;5.67;;
13327;SDS011;6733;51.044;3.746;2022-11-15T03:59:04;12.03;;;6.47;;
13327;SDS011;6733;51.044;3.746;2022-11-15T04:01:30;10.10;;;5.80;;
13327;SDS011;6733;51.044;3.746;2022-11-15T04:03:56;9.37;;;6.17;;
13327;SDS011;6733;51.044;3.746;2022-11-15T04:06:22;10.00;;;6.63;;
13327;SDS011;6733;51.044;3.746;2022-11-15T04:08:48;10.97;;;6.17;;
13327;SDS011;6733;51.044;3.746;2022-11-15T04:11:15;9.10;;;5.80;;
13327;SDS011;6733;51.044;3.746;2022-11-15T04:13:41;9.17;;;6.43;;
13327;SDS011;6733;51.044;3.746;2022-11-15T04:16:07;8.90;;;5.77;;
13327;SDS011;6733;51.044;3.746;2022-11-15T04:18:33;10.83;;;5.57;;
13327;SDS011;6733;51.044;3.746;2022-11-15T04:20:59;8.77;;;5.70;;
13327;SDS011;6733;51.044;3.746;2022-11-15T04:23:44;8.67;;;6.00;;
13327;SDS011;6733;51.044;3.746;2022-11-15T04:26:14;8.90;;;5.47;;
13327;SDS011;6733;51.044;3.746;2022-11-15T04:28:43;13.33;;;6.00;;
13327;SDS011;6733;51.044;3.746;2022-11-15T04:31:38;9.57;;;6.03;;
13327;SDS011;6733;51.044;3.746;2022-11-15T04:34:05;9.00;;;6.00;;
13327;SDS011;6733;51.044;3.746;2022-11-15T04:36:31;8.27;;;5.37;;
13327;SDS011;6733;51.044;3.746;2022-11-15T04:39:15;12.93;;;6.13;;
13327;SDS011;6733;51.044;3.746;2022-11-15T04:41:42;9.07;;;6.13;;
13327;SDS011;6733;51.044;3.746;2022-11-15T04:44:08;9.77;;;6.53;;
13327;SDS011;6733;51.044;3.746;2022-11-15T04:46:35;7.90;;;5.13;;
13327;SDS011;6733;51.044;3.746;2022-11-15T04:49:01;9.00;;;5.13;;
13327;SDS011;6733;51.044;3.746;2022-11-15T04:51:27;7.17;;;4.90;;
13327;SDS011;6733;51.044;3.746;2022-11-15T04:53:53;13.27;;;5.30;;
13327;SDS011;6733;51.044;3.746;2022-11-15T04:56:19;10.10;;;4.83;;
13327;SDS011;6733;51.044;3.746;2022-11-15T04:58:48;9.67;;;4.90;;
13327;SDS011;6733;51.044;3.746;2022-11-15T05:01:15;8.27;;;5.40;;
13327;SDS011;6733;51.044;3.746;2022-11-15T05:03:43;17.87;;;6.20;;
13327;SDS011;6733;51.044;3.746;2022-11-15T05:06:29;8.43;;;4.93;;
13327;SDS011;6733;51.044;3.746;2022-11-15T05:08:55;9.07;;;5.97;;
13327;SDS011;6733;51.044;3.746;2022-11-15T05:11:22;10.37;;;5.80;;
13327;SDS011;6733;51.044;3.746;2022-11-15T05:13:48;12.30;;;5.73;;
13327;SDS011;6733;51.044;3.746;2022-11-15T05:16:14;11.00;;;5.50;;
13327;SDS011;6733;51.044;3.746;2022-11-15T05:18:41;9.27;;;5.73;;
13327;SDS011;6733;51.044;3.746;2022-11-15T05:21:08;11.03;;;6.00;;
13327;SDS011;6733;51.044;3.746;2022-11-15T05:23:36;11.40;;;5.67;;
13327;SDS011;6733;51.044;3.746;2022-11-15T05:26:03;9.20;;;5.83;;
13327;SDS011;6733;51.044;3.746;2022-11-15T05:28:31;9.23;;;5.43;;
13327;SDS011;6733;51.044;3.746;2022-11-15T05:31:01;7.50;;;6.10;;
13327;SDS011;6733;51.044;3.746;2022-11-15T05:33:32;9.57;;;5.30;;
13327;SDS011;6733;51.044;3.746;2022-11-15T05:36:13;10.47;;;5.47;;
13327;SDS011;6733;51.044;3.746;2022-11-15T05:38:59;10.73;;;5.03;;
13327;SDS011;6733;51.044;3.746;2022-11-15T05:41:28;11.80;;;6.00;;
13327;SDS011;6733;51.044;3.746;2022-11-15T05:43:58;13.90;;;5.27;;
13327;SDS011;6733;51.044;3.746;2022-11-15T05:46:26;7.97;;;5.33;;
13327;SDS011;6733;51.044;3.746;2022-11-15T05:48:52;8.97;;;4.60;;
13327;SDS011;6733;51.044;3.746;2022-11-15T05:51:20;8.07;;;4.87;;
13327;SDS011;6733;51.044;3.746;2022-11-15T05:53:48;10.30;;;4.70;;
13327;SDS011;6733;51.044;3.746;2022-11-15T05:56:15;11.23;;;4.50;;
13327;SDS011;6733;51.044;3.746;2022-11-15T05:58:42;7.87;;;4.57;;
13327;SDS011;6733;51.044;3.746;2022-11-15T06:01:08;8.23;;;5.50;;
13327;SDS011;6733;51.044;3.746;2022-11-15T06:03:35;8.33;;;5.40;;
13327;SDS011;6733;51.044;3.746;2022-11-15T06:06:01;6.27;;;4.67;;
13327;SDS011;6733;51.044;3.746;2022-11-15T06:08:27;6.83;;;4.60;;
13327;SDS011;6733;51.044;3.746;2022-11-15T06:10:53;9.97;;;5.30;;
13327;SDS011;6733;51.044;3.746;2022-11-15T06:13:19;6.67;;;4.93;;
13327;SDS011;6733;51.044;3.746;2022-11-15T06:15:45;8.93;;;5.10;;
13327;SDS011;6733;51.044;3.746;2022-11-15T06:18:11;8.47;;;5.37;;
13327;SDS011;6733;51.044;3.746;2022-11-15T06:20:37;6.33;;;4.87;;
13327;SDS011;6733;51.044;3.746;2022-11-15T06:23:04;10.40;;;5.10;;
13327;SDS011;6733;51.044;3.746;2022-11-15T06:25:30;10.13;;;5.47;;
13327;SDS011;6733;51.044;3.746;2022-11-15T06:27:57;9.97;;;5.30;;
13327;SDS011;6733;51.044;3.746;2022-11-15T06:30:24;11.03;;;5.93;;
13327;SDS011;6733;51.044;3.746;2022-11-15T06:32:52;9.70;;;5.80;;
13327;SDS011;6733;51.044;3.746;2022-11-15T06:35:24;8.13;;;6.37;;
13327;SDS011;6733;51.044;3.746;2022-11-15T06:37:51;7.90;;;6.30;;
13327;SDS011;6733;51.044;3.746;2022-11-15T06:40:17;8.90;;;6.53;;
13327;SDS011;6733;51.044;3.746;2022-11-15T06:42:43;6.67;;;6.07;;
13327;SDS011;6733;51.044;3.746;2022-11-15T06:45:09;9.57;;;6.50;;
13327;SDS011;6733;51.044;3.746;2022-11-15T06:47:35;12.03;;;6.53;;
13327;SDS011;6733;51.044;3.746;2022-11-15T06:50:09;10.37;;;7.33;;
13327;SDS011;6733;51.044;3.746;2022-11-15T06:52:35;14.00;;;6.77;;
13327;SDS011;6733;51.044;3.746;2022-11-15T06:55:01;9.03;;;6.57;;
13327;SDS011;6733;51.044;3.746;2022-11-15T06:57:28;10.43;;;6.53;;
13327;SDS011;6733;51.044;3.746;2022-11-15T06:59:54;9.97;;;6.73;;
13327;SDS011;6733;51.044;3.746;2022-11-15T07:02:20;7.67;;;5.77;;
13327;SDS011;6733;51.044;3.746;2022-11-15T07:04:46;7.07;;;6.30;;
13327;SDS011;6733;51.044;3.746;2022-11-15T07:07:12;9.13;;;6.30;;
13327;SDS011;6733;51.044;3.746;2022-11-15T07:09:38;10.30;;;7.73;;
13327;SDS011;6733;51.044;3.746;2022-11-15T07:12:04;10.43;;;6.07;;
13327;SDS011;6733;51.044;3.746;2022-11-15T07:14:31;7.97;;;6.07;;
13327;SDS011;6733;51.044;3.746;2022-11-15T07:16:57;10.07;;;6.43;;
13327;SDS011;6733;51.044;3.746;2022-11-15T07:19:23;8.00;;;6.50;;
13327;SDS011;6733;51.044;3.746;2022-11-15T07:21:49;6.97;;;6.20;;
13327;SDS011;6733;51.044;3.746;2022-11-15T07:24:15;11.57;;;6.90;;
13327;SDS011;6733;51.044;3.746;2022-11-15T07:26:41;9.20;;;6.03;;
13327;SDS011;6733;51.044;3.746;2022-11-15T07:29:07;9.83;;;6.47;;
13327;SDS011;6733;51.044;3.746;2022-11-15T07:31:33;9.30;;;7.07;;
13327;SDS011;6733;51.044;3.746;2022-11-15T07:34:00;9.40;;;5.87;;
13327;SDS011;6733;51.044;3.746;2022-11-15T07:36:26;12.50;;;6.27;;
13327;SDS011;6733;51.044;3.746;2022-11-15T07:38:52;8.50;;;5.73;;
13327;SDS011;6733;51.044;3.746;2022-11-15T07:41:19;9.93;;;5.90;;
13327;SDS011;6733;51.044;3.746;2022-11-15T07:43:45;8.50;;;6.43;;
13327;SDS011;6733;51.044;3.746;2022-11-15T07:46:11;12.17;;;6.50;;
13327;SDS011;6733;51.044;3.746;2022-11-15T07:48:38;11.10;;;6.30;;
13327;SDS011;6733;51.044;3.746;2022-11-15T07:51:06;8.03;;;6.03;;
13327;SDS011;6733;51.044;3.746;2022-11-15T07:53:32;8.47;;;6.63;;
13327;SDS011;6733;51.044;3.746;2022-11-15T07:55:58;8.23;;;6.20;;
13327;SDS011;6733;51.044;3.746;2022-11-15T07:58:24;10.27;;;6.07;;
13327;SDS011;6733;51.044;3.746;2022-11-15T08:00:50;9.63;;;5.90;;
13327;SDS011;6733;51.044;3.746;2022-11-15T08:03:16;8.87;;;5.60;;
13327;SDS011;6733;51.044;3.746;2022-11-15T08:05:43;7.87;;;5.50;;
13327;SDS011;6733;51.044;3.746;2022-11-15T08:08:15;8.23;;;5.40;;
13327;SDS011;6733;51.044;3.746;2022-11-15T08:10:41;6.70;;;5.43;;
13327;SDS011;6733;51.044;3.746;2022-11-15T08:13:08;9.93;;;5.37;;
13327;SDS011;6733;51.044;3.746;2022-11-15T08:15:35;7.13;;;4.83;;
13327;SDS011;6733;51.044;3.746;2022-11-15T08:18:03;10.00;;;5.20;;
13327;SDS011;6733;51.044;3.746;2022-11-15T08:20:31;9.23;;;4.33;;
13327;SDS011;6733;51.044;3.746;2022-11-15T08:22:58;7.33;;;4.47;;
13327;SDS011;6733;51.044;3.746;2022-11-15T08:25:25;8.10;;;5.40;;
13327;SDS011;6733;51.044;3.746;2022-11-15T08:27:53;9.40;;;4.60;;
13327;SDS011;6733;51.044;3.746;2022-11-15T08:30:21;10.40;;;5.00;;
13327;SDS011;6733;51.044;3.746;2022-11-15T08:32:50;7.50;;;5.10;;
13327;SDS011;6733;51.044;3.746;2022-11-15T08:35:17;8.43;;;5.00;;
13327;SDS011;6733;51.044;3.746;2022-11-15T08:37:44;7.43;;;4.53;;
13327;SDS011;6733;51.044;3.746;2022-11-15T08:40:11;8.80;;;4.77;;
13327;SDS011;6733;51.044;3.746;2022-11-15T08:42:37;7.73;;;4.10;;
13327;SDS011;6733;51.044;3.746;2022-11-15T08:45:03;8.87;;;4.40;;
13327;SDS011;6733;51.044;3.746;2022-11-15T08:47:30;12.30;;;5.23;;
13327;SDS011;6733;51.044;3.746;2022-11-15T08:49:56;6.73;;;4.13;;
13327;SDS011;6733;51.044;3.746;2022-11-15T08:52:22;8.27;;;4.60;;
13327;SDS011;6733;51.044;3.746;2022-11-15T08:54:48;13.00;;;3.90;;
13327;SDS011;6733;51.044;3.746;2022-11-15T08:57:14;5.27;;;3.17;;
13327;SDS011;6733;51.044;3.746;2022-11-15T08:59:41;6.33;;;3.30;;
13327;SDS011;6733;51.044;3.746;2022-11-15T09:02:10;6.97;;;3.13;;
13327;SDS011;6733;51.044;3.746;2022-11-15T09:04:41;4.77;;;2.77;;
13327;SDS011;6733;51.044;3.746;2022-11-15T09:07:08;7.33;;;3.60;;
13327;SDS011;6733;51.044;3.746;2022-11-15T09:09:36;8.63;;;3.27;;
13327;SDS011;6733;51.044;3.746;2022-11-15T09:12:02;7.77;;;3.40;;
13327;SDS011;6733;51.044;3.746;2022-11-15T09:14:29;6.87;;;2.97;;
13327;SDS011;6733;51.044;3.746;2022-11-15T09:16:55;5.90;;;2.90;;
13327;SDS011;6733;51.044;3.746;2022-11-15T09:19:21;7.07;;;2.83;;
13327;SDS011;6733;51.044;3.746;2022-11-15T09:21:47;12.30;;;3.27;;
13327;SDS011;6733;51.044;3.746;2022-11-15T09:24:13;11.80;;;3.40;;
13327;SDS011;6733;51.044;3.746;2022-11-15T09:26:40;10.97;;;3.07;;
13327;SDS011;6733;51.044;3.746;2022-11-15T09:29:06;13.47;;;3.67;;
13327;SDS011;6733;51.044;3.746;2022-11-15T09:31:32;5.77;;;2.83;;
13327;SDS011;6733;51.044;3.746;2022-11-15T09:33:58;5.90;;;3.33;;
13327;SDS011;6733;51.044;3.746;2022-11-15T09:36:25;6.90;;;2.87;;
13327;SDS011;6733;51.044;3.746;2022-11-15T09:38:50;6.63;;;3.93;;
13327;SDS011;6733;51.044;3.746;2022-11-15T09:41:25;7.97;;;2.83;;
13327;SDS011;6733;51.044;3.746;2022-11-15T09:49:16;6.07;;;2.80;;
13327;SDS011;6733;51.044;3.746;2022-11-15T09:51:44;10.10;;;2.87;;
13327;SDS011;6733;51.044;3.746;2022-11-15T09:54:16;7.43;;;2.93;;
13327;SDS011;6733;51.044;3.746;2022-11-15T09:57:03;8.47;;;2.80;;
13327;SDS011;6733;51.044;3.746;2022-11-15T10:05:20;10.77;;;2.67;;
13327;SDS011;6733;51.044;3.746;2022-11-15T10:07:52;7.77;;;2.67;;
13327;SDS011;6733;51.044;3.746;2022-11-15T10:10:43;4.83;;;2.83;;
13327;SDS011;6733;51.044;3.746;2022-11-15T10:16:04;6.40;;;2.43;;
13327;SDS011;6733;51.044;3.746;2022-11-15T10:22:00;8.67;;;2.50;;
13327;SDS011;6733;51.044;3.746;2022-11-15T10:24:41;6.70;;;2.53;;
13327;SDS011;6733;51.044;3.746;2022-11-15T10:27:17;6.23;;;2.70;;
13327;SDS011;6733;51.044;3.746;2022-11-15T10:29:45;9.00;;;2.87;;
13327;SDS011;6733;51.044;3.746;2022-11-15T10:32:13;8.03;;;2.73;;
13327;SDS011;6733;51.044;3.746;2022-11-15T10:34:41;7.97;;;2.90;;
13327;SDS011;6733;51.044;3.746;2022-11-15T10:37:07;8.10;;;3.10;;
13327;SDS011;6733;51.044;3.746;2022-11-15T10:39:34;7.27;;;3.00;;
13327;SDS011;6733;51.044;3.746;2022-11-15T10:44:52;10.17;;;3.40;;
13327;SDS011;6733;51.044;3.746;2022-11-15T10:47:28;5.73;;;2.60;;
13327;SDS011;6733;51.044;3.746;2022-11-15T10:49:57;6.27;;;2.83;;
13327;SDS011;6733;51.044;3.746;2022-11-15T10:52:23;9.77;;;3.00;;
13327;SDS011;6733;51.044;3.746;2022-11-15T10:57:48;7.27;;;2.70;;
13327;SDS011;6733;51.044;3.746;2022-11-15T11:05:25;7.37;;;2.77;;
13327;SDS011;6733;51.044;3.746;2022-11-15T11:07:55;9.07;;;2.60;;
13327;SDS011;6733;51.044;3.746;2022-11-15T11:10:24;8.70;;;3.10;;
13327;SDS011;6733;51.044;3.746;2022-11-15T11:12:50;6.33;;;2.00;;
13327;SDS011;6733;51.044;3.746;2022-11-15T11:15:16;8.97;;;2.20;;
13327;SDS011;6733;51.044;3.746;2022-11-15T11:18:05;13.40;;;3.10;;
13327;SDS011;6733;51.044;3.746;2022-11-15T11:48:45;10.27;;;3.27;;
13327;SDS011;6733;51.044;3.746;2022-11-15T11:51:11;13.47;;;3.67;;
13327;SDS011;6733;51.044;3.746;2022-11-15T11:56:19;5.90;;;2.40;;
13327;SDS011;6733;51.044;3.746;2022-11-15T11:58:52;9.03;;;2.10;;
13327;SDS011;6733;51.044;3.746;2022-11-15T12:06:54;8.90;;;2.53;;
13327;SDS011;6733;51.044;3.746;2022-11-15T12:12:34;6.60;;;1.90;;
13327;SDS011;6733;51.044;3.746;2022-11-15T12:15:15;9.27;;;2.87;;
13327;SDS011;6733;51.044;3.746;2022-11-15T12:17:48;5.23;;;2.47;;
13327;SDS011;6733;51.044;3.746;2022-11-15T12:20:17;12.03;;;2.80;;
13327;SDS011;6733;51.044;3.746;2022-11-15T12:25:21;11.80;;;2.67;;
13327;SDS011;6733;51.044;3.746;2022-11-15T12:27:56;11.43;;;3.07;;
13327;SDS011;6733;51.044;3.746;2022-11-15T12:30:54;5.47;;;2.30;;
13327;SDS011;6733;51.044;3.746;2022-11-15T12:33:37;7.30;;;2.30;;
13327;SDS011;6733;51.044;3.746;2022-11-15T12:39:07;4.53;;;2.03;;
13327;SDS011;6733;51.044;3.746;2022-11-15T12:41:38;6.43;;;2.43;;
13327;SDS011;6733;51.044;3.746;2022-11-15T12:44:13;8.13;;;2.37;;
13327;SDS011;6733;51.044;3.746;2022-11-15T12:52:04;4.40;;;2.00;;
13327;SDS011;6733;51.044;3.746;2022-11-15T13:02:22;5.60;;;2.00;;
13327;SDS011;6733;51.044;3.746;2022-11-15T13:04:51;7.07;;;2.70;;
13327;SDS011;6733;51.044;3.746;2022-11-15T13:17:47;12.23;;;2.77;;
13327;SDS011;6733;51.044;3.746;2022-11-15T13:22:44;7.13;;;3.33;;
13327;SDS011;6733;51.044;3.746;2022-11-15T13:28:02;6.87;;;2.50;;
13327;SDS011;6733;51.044;3.746;2022-11-15T13:30:36;5.10;;;2.50;;
13327;SDS011;6733;51.044;3.746;2022-11-15T13:33:10;3.73;;;2.50;;
13327;SDS011;6733;51.044;3.746;2022-11-15T13:35:46;4.17;;;2.77;;
13327;SDS011;6733;51.044;3.746;2022-11-15T13:38:19;8.37;;;3.10;;
13327;SDS011;6733;51.044;3.746;2022-11-15T13:40:57;4.37;;;1.90;;
13327;SDS011;6733;51.044;3.746;2022-11-15T13:43:28;7.13;;;2.90;;
13327;SDS011;6733;51.044;3.746;2022-11-15T13:48:46;4.80;;;2.40;;
13327;SDS011;6733;51.044;3.746;2022-11-15T13:51:19;6.23;;;2.40;;
13327;SDS011;6733;51.044;3.746;2022-11-15T13:56:53;3.57;;;2.30;;
13327;SDS011;6733;51.044;3.746;2022-11-15T13:59:33;6.57;;;2.67;;
13327;SDS011;6733;51.044;3.746;2022-11-15T14:02:46;4.20;;;2.00;;
13327;SDS011;6733;51.044;3.746;2022-11-15T14:04:56;2.47;;;1.70;;
13327;SDS011;6733;51.044;3.746;2022-11-15T14:07:25;4.43;;;2.00;;
13327;SDS011;6733;51.044;3.746;2022-11-15T14:09:55;5.17;;;2.53;;
13327;SDS011;6733;51.044;3.746;2022-11-15T14:12:27;6.33;;;2.40;;
13327;SDS011;6733;51.044;3.746;2022-11-15T14:14:58;8.63;;;2.77;;
13327;SDS011;6733;51.044;3.746;2022-11-15T14:19:55;7.33;;;2.27;;
13327;SDS011;6733;51.044;3.746;2022-11-15T14:30:40;3.97;;;2.00;;
13327;SDS011;6733;51.044;3.746;2022-11-15T14:38:31;8.20;;;2.73;;
13327;SDS011;6733;51.044;3.746;2022-11-15T14:40:57;6.37;;;2.63;;
13327;SDS011;6733;51.044;3.746;2022-11-15T14:43:23;7.80;;;2.70;;
13327;SDS011;6733;51.044;3.746;2022-11-15T14:45:50;2.90;;;2.60;;
13327;SDS011;6733;51.044;3.746;2022-11-15T14:48:15;4.17;;;2.90;;
13327;SDS011;6733;51.044;3.746;2022-11-15T14:50:41;4.20;;;2.90;;
13327;SDS011;6733;51.044;3.746;2022-11-15T14:53:12;4.53;;;2.50;;
13327;SDS011;6733;51.044;3.746;2022-11-15T14:55:41;6.47;;;2.80;;
13327;SDS011;6733;51.044;3.746;2022-11-15T14:58:07;4.20;;;3.00;;
13327;SDS011;6733;51.044;3.746;2022-11-15T15:00:38;4.63;;;2.57;;
13327;SDS011;6733;51.044;3.746;2022-11-15T15:03:05;5.57;;;3.13;;
13327;SDS011;6733;51.044;3.746;2022-11-15T15:05:33;4.60;;;2.93;;
13327;SDS011;6733;51.044;3.746;2022-11-15T15:08:04;4.10;;;2.90;;
13327;SDS011;6733;51.044;3.746;2022-11-15T15:10:32;5.73;;;3.57;;
13327;SDS011;6733;51.044;3.746;2022-11-15T15:13:01;4.97;;;3.20;;
13327;SDS011;6733;51.044;3.746;2022-11-15T15:15:36;5.50;;;3.30;;
13327;SDS011;6733;51.044;3.746;2022-11-15T15:18:03;5.20;;;3.90;;
13327;SDS011;6733;51.044;3.746;2022-11-15T15:20:33;7.57;;;3.60;;
13327;SDS011;6733;51.044;3.746;2022-11-15T15:23:00;7.97;;;3.83;;
13327;SDS011;6733;51.044;3.746;2022-11-15T15:25:27;4.43;;;3.80;;
13327;SDS011;6733;51.044;3.746;2022-11-15T15:27:54;7.03;;;3.80;;
13327;SDS011;6733;51.044;3.746;2022-11-15T15:30:21;4.83;;;3.50;;
13327;SDS011;6733;51.044;3.746;2022-11-15T15:32:47;7.50;;;4.07;;
13327;SDS011;6733;51.044;3.746;2022-11-15T15:35:14;7.80;;;4.70;;
13327;SDS011;6733;51.044;3.746;2022-11-15T15:37:42;7.50;;;3.43;;
13327;SDS011;6733;51.044;3.746;2022-11-15T15:40:19;6.67;;;4.20;;
13327;SDS011;6733;51.044;3.746;2022-11-15T15:42:49;6.83;;;4.10;;
13327;SDS011;6733;51.044;3.746;2022-11-15T15:45:16;5.77;;;4.03;;
13327;SDS011;6733;51.044;3.746;2022-11-15T15:47:43;5.13;;;4.43;;
13327;SDS011;6733;51.044;3.746;2022-11-15T15:50:53;7.83;;;4.20;;
13327;SDS011;6733;51.044;3.746;2022-11-15T15:53:01;5.60;;;4.20;;
13327;SDS011;6733;51.044;3.746;2022-11-15T15:55:29;7.03;;;4.07;;
13327;SDS011;6733;51.044;3.746;2022-11-15T15:57:55;5.90;;;4.30;;
13327;SDS011;6733;51.044;3.746;2022-11-15T16:00:22;5.00;;;4.20;;
13327;SDS011;6733;51.044;3.746;2022-11-15T16:02:50;9.60;;;4.50;;
13327;SDS011;6733;51.044;3.746;2022-11-15T16:05:17;5.27;;;3.83;;
13327;SDS011;6733;51.044;3.746;2022-11-15T16:07:44;7.67;;;4.30;;
13327;SDS011;6733;51.044;3.746;2022-11-15T16:12:59;6.17;;;4.43;;
13327;SDS011;6733;51.044;3.746;2022-11-15T16:15:27;7.07;;;3.70;;
13327;SDS011;6733;51.044;3.746;2022-11-15T16:17:56;3.90;;;3.60;;
13327;SDS011;6733;51.044;3.746;2022-11-15T16:22:59;7.03;;;4.07;;
13327;SDS011;6733;51.044;3.746;2022-11-15T16:25:26;3.80;;;3.40;;
13327;SDS011;6733;51.044;3.746;2022-11-15T16:27:52;6.03;;;5.33;;
13327;SDS011;6733;51.044;3.746;2022-11-15T16:30:20;4.07;;;3.57;;
13327;SDS011;6733;51.044;3.746;2022-11-15T16:32:47;3.83;;;3.43;;
13327;SDS011;6733;51.044;3.746;2022-11-15T16:35:13;4.70;;;3.93;;
13327;SDS011;6733;51.044;3.746;2022-11-15T16:37:41;6.13;;;3.57;;
13327;SDS011;6733;51.044;3.746;2022-11-15T16:42:38;6.33;;;4.03;;
13327;SDS011;6733;51.044;3.746;2022-11-15T16:45:04;8.10;;;4.10;;
13327;SDS011;6733;51.044;3.746;2022-11-15T16:47:31;3.87;;;3.30;;
13327;SDS011;6733;51.044;3.746;2022-11-15T16:49:57;4.40;;;3.97;;
13327;SDS011;6733;51.044;3.746;2022-11-15T16:52:23;6.00;;;4.00;;
13327;SDS011;6733;51.044;3.746;2022-11-15T16:54:49;4.43;;;3.90;;
13327;SDS011;6733;51.044;3.746;2022-11-15T16:57:15;4.00;;;3.60;;
13327;SDS011;6733;51.044;3.746;2022-11-15T16:59:41;4.00;;;3.60;;
13327;SDS011;6733;51.044;3.746;2022-11-15T17:02:16;5.63;;;4.43;;
13327;SDS011;6733;51.044;3.746;2022-11-15T17:04:42;4.67;;;4.27;;
13327;SDS011;6733;51.044;3.746;2022-11-15T17:07:08;5.17;;;4.40;;
13327;SDS011;6733;51.044;3.746;2022-11-15T17:09:35;5.43;;;4.80;;
13327;SDS011;6733;51.044;3.746;2022-11-15T17:12:01;6.53;;;5.47;;
13327;SDS011;6733;51.044;3.746;2022-11-15T17:14:27;7.03;;;5.97;;
13327;SDS011;6733;51.044;3.746;2022-11-15T17:16:53;6.33;;;5.73;;
13327;SDS011;6733;51.044;3.746;2022-11-15T17:19:20;4.70;;;4.20;;
13327;SDS011;6733;51.044;3.746;2022-11-15T17:21:46;5.77;;;4.20;;
13327;SDS011;6733;51.044;3.746;2022-11-15T17:24:14;6.60;;;4.10;;
13327;SDS011;6733;51.044;3.746;2022-11-15T17:26:40;5.97;;;5.47;;
13327;SDS011;6733;51.044;3.746;2022-11-15T17:29:07;6.00;;;5.40;;
13327;SDS011;6733;51.044;3.746;2022-11-15T17:31:34;4.83;;;4.30;;
13327;SDS011;6733;51.044;3.746;2022-11-15T17:34:01;5.13;;;4.63;;
13327;SDS011;6733;51.044;3.746;2022-11-15T17:36:29;5.37;;;4.53;;
13327;SDS011;6733;51.044;3.746;2022-11-15T17:38:55;5.53;;;4.93;;
13327;SDS011;6733;51.044;3.746;2022-11-15T17:41:21;5.07;;;4.57;;
13327;SDS011;6733;51.044;3.746;2022-11-15T17:43:48;4.10;;;3.70;;
13327;SDS011;6733;51.044;3.746;2022-11-15T17:46:18;4.57;;;4.03;;
13327;SDS011;6733;51.044;3.746;2022-11-15T17:48:45;5.33;;;4.80;;